Time;durP1;ratioP1;P1;durP2;ratioP2;P2;SDS_P1;SDS_P2;PMS_P1;PMS_P2;Temp;Humidity;BMP_temperature;BMP_pressure;BME280_temperature;BME280_humidity;BME280_pressure;Samples;Min_cycle;Max_cycle;Signal;HPM_P1;HPM_P2
2021/09/10 00:00:53;;;;;;;34.13;30.20;;;19.40;99.90;;;;;;5000844;28;20038;-70
2021/09/10 00:03:19;;;;;;;36.58;32.78;;;19.40;99.90;;;;;;4999091;28;20088;-69
2021/09/10 00:05:44;;;;;;;35.30;31.65;;;19.40;99.90;;;;;;5001283;28;20059;-70
2021/09/10 00:08:10;;;;;;;36.10;32.22;;;19.40;99.90;;;;;;5000059;28;20048;-70
2021/09/10 00:10:36;;;;;;;37.90;33.70;;;19.50;99.90;;;;;;5001489;28;20037;-71
2021/09/10 00:13:02;;;;;;;36.00;32.15;;;19.50;99.90;;;;;;5002882;28;20038;-70
2021/09/10 00:15:27;;;;;;;35.47;31.85;;;19.60;99.90;;;;;;5001318;28;20037;-70
2021/09/10 00:17:54;;;;;;;34.58;30.90;;;19.60;99.90;;;;;;5003850;28;20112;-69
2021/09/10 00:20:20;;;;;;;31.75;28.75;;;19.60;99.90;;;;;;5000469;28;20483;-69
2021/09/10 00:22:46;;;;;;;33.00;29.42;;;19.70;99.90;;;;;;5001504;28;20042;-70
2021/09/10 00:25:12;;;;;;;28.73;25.92;;;19.70;99.90;;;;;;4999170;28;20064;-69
2021/09/10 00:27:38;;;;;;;33.25;29.90;;;19.70;99.90;;;;;;4997914;28;20176;-70
2021/09/10 00:30:06;;;;;;;31.83;26.63;;;19.80;99.90;;;;;;5000606;28;20552;-69
2021/09/10 00:32:31;;;;;;;30.60;26.65;;;19.70;99.90;;;;;;5000452;28;20125;-69
2021/09/10 00:34:57;;;;;;;26.75;24.05;;;19.60;99.90;;;;;;4998515;28;20133;-70
2021/09/10 00:37:22;;;;;;;30.58;27.35;;;19.70;99.90;;;;;;5000139;28;20046;-70
2021/09/10 00:39:48;;;;;;;32.42;29.08;;;19.60;99.90;;;;;;4998245;28;20052;-70
2021/09/10 00:42:13;;;;;;;32.38;29.15;;;19.60;99.90;;;;;;5000998;28;20434;-70
2021/09/10 00:44:39;;;;;;;30.92;27.70;;;19.40;99.90;;;;;;4998481;28;20447;-70
2021/09/10 00:47:05;;;;;;;28.45;25.30;;;19.50;99.90;;;;;;5001209;28;20048;-70
2021/09/10 00:49:31;;;;;;;26.48;23.65;;;19.40;99.90;;;;;;4999659;28;20049;-70
2021/09/10 00:51:57;;;;;;;26.23;23.50;;;19.40;99.90;;;;;;4998328;28;20038;-70
2021/09/10 00:54:24;;;;;;;26.98;24.15;;;19.50;99.90;;;;;;4998235;28;20053;-69
2021/09/10 00:56:50;;;;;;;29.10;24.52;;;19.50;99.90;;;;;;4999218;28;20103;-69
2021/09/10 00:59:16;;;;;;;26.67;23.33;;;19.60;99.90;;;;;;4998852;28;20057;-69
2021/09/10 01:01:42;;;;;;;29.70;26.58;;;19.70;99.90;;;;;;5000714;28;20042;-69
2021/09/10 01:04:08;;;;;;;24.83;22.33;;;19.60;99.90;;;;;;5002936;28;20042;-70
2021/09/10 01:06:33;;;;;;;26.20;23.48;;;19.50;99.90;;;;;;5000120;28;20106;-69
2021/09/10 01:09:00;;;;;;;27.65;22.98;;;19.50;99.90;;;;;;5002997;28;20080;-70
2021/09/10 01:11:26;;;;;;;27.35;24.23;;;19.50;99.90;;;;;;4997385;28;20045;-69
2021/09/10 01:13:54;;;;;;;27.65;24.85;;;19.40;99.90;;;;;;4996971;28;20050;-70
2021/09/10 01:16:20;;;;;;;30.13;24.33;;;19.40;99.90;;;;;;4999799;28;20073;-69
2021/09/10 01:18:46;;;;;;;26.17;23.60;;;19.40;99.90;;;;;;4999803;28;20120;-69
2021/09/10 01:21:11;;;;;;;24.63;22.15;;;19.40;99.90;;;;;;5000456;28;20038;-69
2021/09/10 01:23:37;;;;;;;23.90;21.63;;;19.40;99.90;;;;;;5001260;28;20104;-69
2021/09/10 01:26:03;;;;;;;23.67;21.25;;;19.40;99.90;;;;;;4996762;28;20057;-69
2021/09/10 01:28:29;;;;;;;25.20;22.55;;;19.40;99.90;;;;;;4996068;28;20044;-69
2021/09/10 01:30:54;;;;;;;28.40;25.33;;;19.40;99.90;;;;;;4999262;28;20049;-70
2021/09/10 01:33:20;;;;;;;28.17;25.33;;;19.30;99.90;;;;;;4997631;28;20099;-69
2021/09/10 01:35:46;;;;;;;29.00;24.40;;;19.20;99.90;;;;;;4999347;28;20567;-69
2021/09/10 01:38:11;;;;;;;25.33;22.95;;;19.10;99.90;;;;;;5001154;28;20046;-69
2021/09/10 01:40:38;;;;;;;25.05;22.55;;;19.20;99.90;;;;;;4999587;28;20038;-69
2021/09/10 01:43:05;;;;;;;25.65;22.98;;;19.10;99.90;;;;;;4999090;28;20064;-69
2021/09/10 01:45:31;;;;;;;26.80;23.95;;;19.10;99.90;;;;;;4999406;28;20045;-69
2021/09/10 01:47:56;;;;;;;28.15;25.35;;;19.10;99.90;;;;;;4999193;28;20030;-69
2021/09/10 01:50:23;;;;;;;31.83;27.20;;;19.10;99.90;;;;;;4997551;28;20143;-69
2021/09/10 01:52:49;;;;;;;29.75;26.73;;;19.10;99.90;;;;;;5000943;28;20161;-70
2021/09/10 01:55:15;;;;;;;31.27;28.05;;;19.10;99.90;;;;;;4999947;28;20121;-70
2021/09/10 01:57:45;;;;;;;33.67;29.38;;;19.00;99.90;;;;;;4997305;28;20044;-70
2021/09/10 02:00:11;;;;;;;29.52;26.42;;;19.10;99.90;;;;;;5000308;28;20064;-70
2021/09/10 02:02:37;;;;;;;28.85;25.95;;;19.00;99.90;;;;;;5001098;28;20069;-70
2021/09/10 02:05:02;;;;;;;34.05;27.33;;;19.10;99.90;;;;;;4999627;28;20399;-70
2021/09/10 02:07:28;;;;;;;30.35;25.33;;;19.10;99.90;;;;;;5000755;28;20049;-69
2021/09/10 02:09:53;;;;;;;32.00;28.38;;;19.00;99.90;;;;;;4998827;28;20129;-69
2021/09/10 02:12:19;;;;;;;31.90;28.58;;;19.10;99.90;;;;;;4997605;28;20073;-69
2021/09/10 02:14:44;;;;;;;29.00;24.77;;;19.10;99.90;;;;;;5000883;28;20046;-69
2021/09/10 02:17:10;;;;;;;29.92;26.83;;;19.10;99.90;;;;;;5001712;28;20131;-69
2021/09/10 02:19:36;;;;;;;29.30;26.20;;;19.20;99.90;;;;;;4999748;28;20041;-69
2021/09/10 02:22:01;;;;;;;34.22;26.40;;;19.20;99.90;;;;;;5001621;28;20089;-69
2021/09/10 02:24:27;;;;;;;29.05;25.30;;;19.20;99.90;;;;;;4999389;28;20094;-69
2021/09/10 02:26:53;;;;;;;30.55;27.33;;;19.10;99.90;;;;;;4985505;28;20041;-69
2021/09/10 02:29:19;;;;;;;30.90;27.50;;;19.10;99.90;;;;;;5000947;28;20044;-69
2021/09/10 02:31:45;;;;;;;28.30;25.60;;;19.10;99.90;;;;;;5003210;28;20407;-69
2021/09/10 02:34:11;;;;;;;27.88;25.05;;;19.00;99.90;;;;;;5003761;28;20518;-69
2021/09/10 02:36:37;;;;;;;32.70;26.52;;;19.10;99.90;;;;;;5000466;28;20100;-69
2021/09/10 02:39:07;;;;;;;33.75;26.73;;;19.10;99.90;;;;;;5001956;28;20042;-70
2021/09/10 02:41:33;;;;;;;32.88;28.65;;;19.20;99.90;;;;;;4999112;28;20049;-70
2021/09/10 02:43:59;;;;;;;35.83;29.33;;;19.10;99.90;;;;;;5000978;28;20488;-69
2021/09/10 02:46:24;;;;;;;28.65;25.67;;;19.10;99.90;;;;;;5002705;28;20041;-70
2021/09/10 02:48:51;;;;;;;39.92;32.33;;;19.10;99.90;;;;;;5004585;28;20120;-69
2021/09/10 02:51:16;;;;;;;33.85;30.33;;;19.10;99.90;;;;;;5006278;28;20041;-69
2021/09/10 02:53:42;;;;;;;36.13;30.33;;;19.10;99.90;;;;;;5001095;28;20069;-69
2021/09/10 02:56:07;;;;;;;38.92;31.83;;;19.20;99.90;;;;;;5005990;28;20042;-69
2021/09/10 02:58:33;;;;;;;41.42;34.20;;;19.20;99.90;;;;;;5003329;28;20054;-69
2021/09/10 03:01:01;;;;;;;37.28;33.22;;;19.20;99.90;;;;;;5004347;28;20130;-69
2021/09/10 03:03:27;;;;;;;36.20;32.28;;;19.20;99.90;;;;;;5008150;28;20057;-69
2021/09/10 03:05:53;;;;;;;39.25;35.05;;;19.30;99.90;;;;;;5008493;28;20473;-69
2021/09/10 03:08:19;;;;;;;39.42;35.40;;;19.40;99.90;;;;;;5005344;28;20048;-70
2021/09/10 03:10:45;;;;;;;45.25;36.92;;;19.50;99.90;;;;;;5002541;28;20488;-69
2021/09/10 03:13:10;;;;;;;38.05;34.05;;;19.40;99.90;;;;;;5004223;28;20571;-70
2021/09/10 03:15:36;;;;;;;40.17;35.88;;;19.50;99.90;;;;;;5002701;28;20057;-69
2021/09/10 03:18:02;;;;;;;39.85;35.55;;;19.50;99.90;;;;;;5005064;28;20077;-69
2021/09/10 03:20:27;;;;;;;39.40;35.10;;;19.50;99.90;;;;;;5006981;28;20051;-69
2021/09/10 03:22:53;;;;;;;38.47;34.38;;;19.60;99.90;;;;;;5019627;28;20046;-69
2021/09/10 03:25:19;;;;;;;45.90;38.88;;;19.60;99.90;;;;;;5003098;28;20045;-69
2021/09/10 03:27:44;;;;;;;43.00;38.08;;;19.50;99.90;;;;;;5002883;28;20689;-69
2021/09/10 03:30:11;;;;;;;43.22;37.80;;;19.50;99.90;;;;;;5004651;28;20042;-69
2021/09/10 03:32:37;;;;;;;44.70;39.60;;;19.60;99.90;;;;;;5003218;28;20046;-69
2021/09/10 03:35:04;;;;;;;42.47;37.97;;;19.60;99.90;;;;;;5005067;28;20077;-69
2021/09/10 03:37:29;;;;;;;48.90;40.50;;;19.60;99.90;;;;;;5005526;28;20044;-69
2021/09/10 03:39:55;;;;;;;43.67;38.20;;;19.60;99.90;;;;;;5007133;28;20046;-70
2021/09/10 03:42:21;;;;;;;47.83;41.45;;;19.60;99.90;;;;;;5006261;28;20080;-70
2021/09/10 03:44:46;;;;;;;45.42;40.70;;;19.60;99.90;;;;;;5007277;28;20082;-70
2021/09/10 03:47:12;;;;;;;49.58;41.78;;;19.60;99.90;;;;;;5005413;28;20488;-70
2021/09/10 03:49:37;;;;;;;48.95;41.97;;;19.60;99.90;;;;;;5005629;28;20038;-70
2021/09/10 03:52:04;;;;;;;45.42;40.72;;;19.60;99.90;;;;;;5005941;28;20038;-70
2021/09/10 03:54:32;;;;;;;45.55;40.78;;;19.60;99.90;;;;;;5007249;28;20675;-69
2021/09/10 03:56:57;;;;;;;51.03;42.55;;;19.60;99.90;;;;;;5009459;28;20202;-69
2021/09/10 03:59:24;;;;;;;47.67;41.20;;;19.60;99.90;;;;;;5002758;28;20137;-69
2021/09/10 04:01:50;;;;;;;47.83;42.40;;;19.60;99.90;;;;;;5008595;28;20064;-69
2021/09/10 04:04:15;;;;;;;44.67;38.95;;;19.60;99.90;;;;;;5007349;28;20046;-70
2021/09/10 04:06:41;;;;;;;47.13;41.90;;;19.60;99.90;;;;;;5004089;28;20112;-70
2021/09/10 04:09:07;;;;;;;44.60;40.00;;;19.60;99.90;;;;;;5005101;28;20054;-69
2021/09/10 04:11:32;;;;;;;44.35;39.70;;;19.60;99.90;;;;;;5006665;28;20125;-70
2021/09/10 04:13:58;;;;;;;45.65;40.75;;;19.70;99.90;;;;;;5006147;28;20053;-70
2021/09/10 04:16:23;;;;;;;44.90;40.17;;;19.70;99.90;;;;;;5006727;28;20046;-70
2021/09/10 04:18:49;;;;;;;46.58;41.50;;;19.70;99.90;;;;;;5002195;28;20156;-70
2021/09/10 04:21:15;;;;;;;44.25;39.55;;;19.80;99.90;;;;;;5004045;28;20046;-70
2021/09/10 04:23:40;;;;;;;44.72;40.08;;;19.80;99.90;;;;;;5004231;28;20400;-70
2021/09/10 04:26:06;;;;;;;44.78;40.08;;;19.80;99.90;;;;;;5002792;28;20030;-70
2021/09/10 04:28:32;;;;;;;42.83;38.45;;;19.80;99.90;;;;;;5003944;28;20472;-69
2021/09/10 04:30:58;;;;;;;43.65;38.65;;;19.80;99.90;;;;;;5003102;28;20045;-69
2021/09/10 04:33:23;;;;;;;41.92;37.60;;;19.80;99.90;;;;;;5003877;28;20041;-70
2021/09/10 04:35:49;;;;;;;40.53;36.30;;;19.80;99.90;;;;;;5002949;28;20042;-69
2021/09/10 04:38:15;;;;;;;41.30;37.00;;;19.70;99.90;;;;;;5004823;28;20046;-69
2021/09/10 04:40:41;;;;;;;42.33;37.88;;;19.70;99.90;;;;;;5005864;28;20033;-69
2021/09/10 04:43:07;;;;;;;46.08;39.30;;;19.70;99.90;;;;;;5006430;28;20399;-69
2021/09/10 04:45:33;;;;;;;44.20;39.58;;;19.60;99.90;;;;;;5004501;28;20084;-69
2021/09/10 04:47:58;;;;;;;46.45;41.05;;;19.60;99.90;;;;;;5005427;28;20049;-70
2021/09/10 04:50:24;;;;;;;46.08;40.83;;;19.60;99.90;;;;;;5005334;28;20038;-70
2021/09/10 04:52:49;;;;;;;39.53;35.40;;;19.60;99.90;;;;;;5006464;28;20111;-69
2021/09/10 04:55:16;;;;;;;44.75;39.90;;;19.50;99.90;;;;;;5004854;28;20046;-70
2021/09/10 04:57:42;;;;;;;43.25;38.78;;;19.50;99.90;;;;;;5002996;28;20052;-69
2021/09/10 05:00:08;;;;;;;43.40;38.83;;;19.50;99.90;;;;;;5003542;28;20038;-70
2021/09/10 05:02:34;;;;;;;39.17;34.95;;;19.60;99.90;;;;;;5005293;28;20444;-70
2021/09/10 05:04:59;;;;;;;41.58;37.25;;;19.50;99.90;;;;;;5005827;28;20034;-70
2021/09/10 05:07:25;;;;;;;43.85;39.05;;;19.50;99.90;;;;;;5007784;28;20033;-70
2021/09/10 05:09:51;;;;;;;40.22;35.88;;;19.40;99.90;;;;;;5005657;28;20038;-70
2021/09/10 05:12:16;;;;;;;42.90;36.88;;;19.40;99.90;;;;;;5004788;28;20033;-69
2021/09/10 05:14:42;;;;;;;44.58;39.78;;;19.40;99.90;;;;;;5000667;28;20053;-69
2021/09/10 05:17:10;;;;;;;38.35;34.55;;;19.40;99.90;;;;;;5001786;28;20065;-69
2021/09/10 05:19:38;;;;;;;44.67;39.75;;;19.30;99.90;;;;;;5001148;28;20038;-70
2021/09/10 05:22:04;;;;;;;42.13;37.75;;;19.20;99.90;;;;;;4999359;28;20042;-70
2021/09/10 05:24:29;;;;;;;41.90;37.30;;;19.20;99.90;;;;;;4999991;28;20092;-69
2021/09/10 05:26:55;;;;;;;40.85;36.80;;;19.30;99.90;;;;;;4999085;28;20049;-70
2021/09/10 05:29:21;;;;;;;42.38;37.65;;;19.30;99.90;;;;;;4999422;28;20062;-69
2021/09/10 05:31:46;;;;;;;41.85;37.55;;;19.40;99.90;;;;;;5000346;28;20038;-70
2021/09/10 05:34:12;;;;;;;43.00;38.70;;;19.40;99.90;;;;;;5000108;28;21622;-70
2021/09/10 05:36:38;;;;;;;44.78;39.78;;;19.40;99.90;;;;;;4999943;28;20661;-70
2021/09/10 05:39:04;;;;;;;44.00;39.35;;;19.30;99.90;;;;;;4983312;28;20506;-70
2021/09/10 05:41:30;;;;;;;50.13;44.83;;;19.30;99.90;;;;;;5001818;28;20034;-70
2021/09/10 05:43:55;;;;;;;52.33;46.63;;;19.30;99.90;;;;;;4998278;28;20454;-69
2021/09/10 05:46:21;;;;;;;48.58;43.05;;;19.40;99.90;;;;;;4999695;28;20033;-70
2021/09/10 05:48:47;;;;;;;47.90;42.78;;;19.40;99.90;;;;;;5001639;28;20038;-70
2021/09/10 05:51:12;;;;;;;47.60;42.78;;;19.40;99.90;;;;;;5000536;28;20041;-70
2021/09/10 05:53:39;;;;;;;49.78;44.58;;;19.50;99.90;;;;;;5002249;28;20065;-70
2021/09/10 05:56:05;;;;;;;48.45;43.35;;;19.50;99.90;;;;;;5000794;28;20049;-70
2021/09/10 05:58:30;;;;;;;49.10;44.03;;;19.60;99.90;;;;;;4999311;28;20048;-69
2021/09/10 06:00:56;;;;;;;50.72;44.08;;;19.60;99.90;;;;;;4999222;28;20042;-69
2021/09/10 06:03:22;;;;;;;47.03;41.92;;;19.60;99.90;;;;;;5000145;28;20080;-69
2021/09/10 06:05:47;;;;;;;49.40;43.38;;;19.70;99.90;;;;;;4999114;28;20065;-69
2021/09/10 06:08:13;;;;;;;52.45;44.72;;;19.70;99.90;;;;;;4999176;28;20037;-69
2021/09/10 06:10:40;;;;;;;54.50;48.25;;;19.70;99.90;;;;;;5000561;28;20042;-68
2021/09/10 06:13:06;;;;;;;54.88;46.83;;;19.70;99.90;;;;;;4998279;28;20552;-69
2021/09/10 06:15:32;;;;;;;51.95;45.45;;;19.80;99.90;;;;;;4998566;28;20136;-69
2021/09/10 06:17:57;;;;;;;49.92;44.70;;;19.80;99.90;;;;;;4998039;28;20077;-68
2021/09/10 06:20:23;;;;;;;51.58;46.08;;;19.80;99.90;;;;;;4999267;28;20042;-69
2021/09/10 06:22:48;;;;;;;50.72;44.38;;;19.80;99.90;;;;;;5003244;28;20073;-69
2021/09/10 06:25:14;;;;;;;49.25;44.00;;;19.80;99.90;;;;;;5002913;28;20084;-69
2021/09/10 06:27:41;;;;;;;50.20;43.40;;;19.90;99.90;;;;;;5005853;28;20057;-69
2021/09/10 06:30:08;;;;;;;46.97;41.67;;;19.90;99.90;;;;;;5003461;28;20042;-69
2021/09/10 06:32:38;;;;;;;52.72;42.10;;;19.90;99.90;;;;;;5001858;28;20042;-68
2021/09/10 06:35:05;;;;;;;50.83;44.65;;;20.00;99.90;;;;;;5002400;28;20038;-68
2021/09/10 06:37:30;;;;;;;47.72;42.55;;;20.00;99.90;;;;;;5003592;28;20168;-69
2021/09/10 06:39:56;;;;;;;45.50;40.45;;;20.00;99.90;;;;;;5006684;28;20496;-69
2021/09/10 06:42:21;;;;;;;47.05;41.90;;;20.10;99.90;;;;;;5003915;28;21513;-69
2021/09/10 06:44:50;;;;;;;49.80;40.75;;;20.10;99.90;;;;;;5002897;28;20124;-68
2021/09/10 06:47:16;;;;;;;43.15;38.85;;;20.20;99.90;;;;;;5001466;28;20156;-69
2021/09/10 06:49:42;;;;;;;45.33;40.63;;;20.20;99.90;;;;;;5005069;28;20195;-69
2021/09/10 06:52:08;;;;;;;43.30;37.88;;;20.20;99.90;;;;;;4988738;28;20042;-69
2021/09/10 06:54:33;;;;;;;43.90;38.17;;;20.30;99.90;;;;;;5001679;28;20052;-69
2021/09/10 06:56:59;;;;;;;42.25;37.65;;;20.30;99.90;;;;;;5003913;28;20038;-69
2021/09/10 06:59:24;;;;;;;40.33;36.17;;;20.30;99.90;;;;;;5004388;28;20045;-69
2021/09/10 07:01:50;;;;;;;41.15;36.70;;;20.50;99.90;;;;;;5001602;28;21791;-69
2021/09/10 07:04:16;;;;;;;38.45;34.45;;;20.50;99.90;;;;;;5000237;28;20046;-68
2021/09/10 07:06:41;;;;;;;43.63;35.92;;;20.60;99.90;;;;;;5003924;28;20058;-68
2021/09/10 07:09:07;;;;;;;39.53;35.17;;;20.70;99.90;;;;;;5002456;28;20551;-68
2021/09/10 07:11:33;;;;;;;40.45;36.33;;;20.70;99.90;;;;;;5001982;28;20048;-68
2021/09/10 07:14:03;;;;;;;41.85;36.63;;;20.70;99.90;;;;;;5003902;28;20128;-68
2021/09/10 07:16:30;;;;;;;40.25;36.10;;;20.70;99.90;;;;;;5002034;28;21574;-69
2021/09/10 07:18:56;;;;;;;40.97;34.08;;;20.70;99.90;;;;;;5002562;28;20220;-69
2021/09/10 07:21:21;;;;;;;40.67;36.28;;;20.70;99.90;;;;;;4983155;28;20065;-69
2021/09/10 07:23:47;;;;;;;41.80;35.65;;;20.80;99.90;;;;;;5005238;28;20415;-69
2021/09/10 07:26:14;;;;;;;46.13;38.85;;;20.80;99.90;;;;;;4985502;28;20033;-69
2021/09/10 07:28:40;;;;;;;40.08;35.72;;;20.80;99.90;;;;;;5004314;28;20496;-68
2021/09/10 07:31:06;;;;;;;39.85;35.55;;;20.80;99.90;;;;;;5003924;28;20033;-68
2021/09/10 07:33:36;;;;;;;40.53;35.38;;;20.80;99.90;;;;;;5002078;28;20042;-68
2021/09/10 07:36:02;;;;;;;42.25;37.58;;;20.80;99.90;;;;;;5002912;28;20050;-69
2021/09/10 07:38:28;;;;;;;42.00;37.53;;;20.80;99.90;;;;;;5003783;28;20487;-69
2021/09/10 07:40:54;;;;;;;43.50;38.38;;;20.90;99.90;;;;;;5003726;28;20042;-69
2021/09/10 07:43:20;;;;;;;47.40;38.83;;;20.80;99.90;;;;;;5004084;28;20038;-69
2021/09/10 07:45:46;;;;;;;43.00;37.65;;;20.90;99.90;;;;;;5002129;28;20045;-68
2021/09/10 07:48:11;;;;;;;45.20;39.63;;;20.90;99.90;;;;;;5001625;28;20133;-69
2021/09/10 07:50:37;;;;;;;51.35;40.22;;;21.00;99.90;;;;;;5003514;28;20538;-69
2021/09/10 07:53:03;;;;;;;46.05;38.17;;;21.00;99.90;;;;;;5001579;28;20730;-69
2021/09/10 07:55:28;;;;;;;44.08;39.30;;;21.10;99.90;;;;;;5000549;28;20046;-69
2021/09/10 07:57:54;;;;;;;45.85;38.30;;;21.00;99.90;;;;;;5001240;28;20041;-69
2021/09/10 08:00:21;;;;;;;46.30;38.00;;;21.10;99.90;;;;;;5001344;28;20049;-69
2021/09/10 08:02:47;;;;;;;48.97;39.35;;;21.10;99.90;;;;;;5004635;28;20034;-69
2021/09/10 08:05:13;;;;;;;45.92;39.15;;;21.10;99.90;;;;;;5001384;28;20257;-69
2021/09/10 08:07:39;;;;;;;47.40;39.33;;;21.10;99.90;;;;;;5001809;28;20042;-69
2021/09/10 08:10:05;;;;;;;45.70;38.58;;;21.10;99.90;;;;;;5003643;28;20049;-69
2021/09/10 08:12:31;;;;;;;43.90;39.28;;;21.10;99.90;;;;;;4998776;28;20050;-68
2021/09/10 08:14:57;;;;;;;43.45;38.35;;;21.20;99.90;;;;;;5000125;28;20049;-68
2021/09/10 08:17:23;;;;;;;45.60;39.42;;;21.30;99.90;;;;;;5000615;28;20101;-69
2021/09/10 08:19:49;;;;;;;47.65;38.67;;;21.30;99.90;;;;;;5001984;28;20516;-68
2021/09/10 08:22:17;;;;;;;43.53;37.08;;;21.40;99.90;;;;;;5002506;28;20408;-69
2021/09/10 08:24:44;;;;;;;41.47;36.90;;;21.50;99.90;;;;;;5001020;28;20544;-69
2021/09/10 08:27:09;;;;;;;42.80;38.13;;;21.60;99.90;;;;;;5002508;28;20562;-69
2021/09/10 08:29:35;;;;;;;42.10;36.33;;;21.60;99.90;;;;;;5001539;28;20038;-68
2021/09/10 08:32:01;;;;;;;42.45;37.83;;;21.80;99.90;;;;;;5002413;28;20477;-68
2021/09/10 08:34:26;;;;;;;43.03;37.20;;;21.80;99.90;;;;;;5003642;28;20504;-69
2021/09/10 08:36:52;;;;;;;41.25;37.05;;;21.90;99.90;;;;;;5002999;28;20125;-69
2021/09/10 08:39:17;;;;;;;41.15;36.88;;;22.10;99.90;;;;;;5000493;28;20053;-69
2021/09/10 08:41:43;;;;;;;43.80;36.25;;;22.10;99.90;;;;;;4998498;28;20077;-69
2021/09/10 08:44:12;;;;;;;41.85;37.55;;;22.10;99.90;;;;;;5000654;28;20128;-68
2021/09/10 08:46:40;;;;;;;40.20;35.10;;;22.10;99.90;;;;;;5001450;28;20034;-69
2021/09/10 08:49:08;;;;;;;41.92;37.53;;;22.20;99.90;;;;;;4999900;28;20046;-69
2021/09/10 08:51:33;;;;;;;43.35;38.65;;;22.10;99.90;;;;;;4998138;28;20050;-69
2021/09/10 08:53:59;;;;;;;42.70;38.30;;;22.10;99.90;;;;;;5000515;28;20041;-69
2021/09/10 08:56:25;;;;;;;42.10;36.03;;;22.10;99.90;;;;;;5000768;28;20477;-69
2021/09/10 08:58:50;;;;;;;44.30;38.20;;;22.10;99.90;;;;;;4984263;28;20081;-69
2021/09/10 09:01:16;;;;;;;41.75;37.47;;;22.10;99.90;;;;;;4984037;28;20041;-69
2021/09/10 09:03:41;;;;;;;43.13;38.80;;;22.10;99.90;;;;;;5000137;28;20046;-68
2021/09/10 09:06:07;;;;;;;45.28;40.00;;;22.10;99.90;;;;;;5001294;28;20133;-69
2021/09/10 09:08:33;;;;;;;46.53;41.65;;;22.10;99.90;;;;;;5000287;28;20049;-69
2021/09/10 09:10:58;;;;;;;47.15;40.75;;;22.20;99.90;;;;;;5000792;28;20034;-68
2021/09/10 09:13:27;;;;;;;44.45;39.65;;;22.20;99.90;;;;;;5001901;28;20037;-69
2021/09/10 09:16:13;;;;;;;41.63;37.13;;;22.10;99.90;;;;;;5002296;28;20083;-69
2021/09/10 09:18:48;;;;;;;43.47;38.13;;;22.10;99.90;;;;;;4997932;28;20041;-69
2021/09/10 09:21:19;;;;;;;41.83;37.42;;;22.10;99.90;;;;;;5002834;28;20068;-69
2021/09/10 09:24:14;;;;;;;41.00;36.50;;;22.10;99.90;;;;;;5015801;28;20073;-69
2021/09/10 09:26:42;;;;;;;40.77;36.73;;;22.10;99.90;;;;;;4997879;28;20053;-69
2021/09/10 09:29:13;;;;;;;39.40;35.58;;;22.00;99.90;;;;;;4999916;28;20320;-69
2021/09/10 09:31:40;;;;;;;40.97;36.35;;;22.00;99.90;;;;;;5000548;28;20034;-69
2021/09/10 09:34:41;;;;;;;38.28;34.58;;;22.10;99.90;;;;;;4999695;28;20443;-69
2021/09/10 09:37:06;;;;;;;38.85;35.03;;;22.10;99.90;;;;;;5000766;28;20054;-69
2021/09/10 09:39:54;;;;;;;38.58;34.70;;;22.10;99.90;;;;;;4995432;28;20099;-69
2021/09/10 09:42:24;;;;;;;36.72;33.08;;;22.20;99.90;;;;;;4996432;28;20046;-69
2021/09/10 09:45:20;;;;;;;37.67;34.08;;;22.20;99.90;;;;;;4998506;28;20372;-69
2021/09/10 09:47:45;;;;;;;57.53;34.92;;;22.30;99.90;;;;;;4996702;28;20053;-69
2021/09/10 09:50:19;;;;;;;37.10;33.60;;;22.30;99.90;;;;;;4983534;28;20050;-68
2021/09/10 09:52:49;;;;;;;36.22;32.53;;;22.30;99.90;;;;;;4998693;28;20081;-69
2021/09/10 09:55:15;;;;;;;38.15;32.70;;;22.30;99.90;;;;;;4999759;28;20441;-69
2021/09/10 09:57:43;;;;;;;34.13;31.02;;;22.30;99.90;;;;;;4996624;28;20054;-69
2021/09/10 10:00:10;;;;;;;33.05;30.08;;;22.40;99.90;;;;;;4998188;28;21272;-69
2021/09/10 10:02:37;;;;;;;36.25;32.65;;;22.50;99.90;;;;;;4999392;28;20054;-69
2021/09/10 10:05:05;;;;;;;35.70;32.20;;;22.40;99.90;;;;;;4996807;28;20103;-69
2021/09/10 10:07:41;;;;;;;33.13;30.00;;;22.50;99.90;;;;;;4999631;28;20045;-69
2021/09/10 10:10:09;;;;;;;32.70;29.85;;;22.50;99.90;;;;;;4998948;28;20530;-69
2021/09/10 10:12:35;;;;;;;33.67;30.48;;;22.40;99.90;;;;;;4999998;28;20045;-69
2021/09/10 10:15:22;;;;;;;33.13;29.98;;;22.40;99.90;;;;;;4984719;28;20491;-69
2021/09/10 10:17:48;;;;;;;32.85;29.85;;;22.50;99.90;;;;;;4996714;28;20073;-69
2021/09/10 10:20:45;;;;;;;31.98;29.13;;;22.50;99.90;;;;;;4997011;28;20573;-69
2021/09/10 10:23:41;;;;;;;32.70;29.35;;;22.60;99.90;;;;;;4995757;28;22127;-69
2021/09/10 10:26:33;;;;;;;31.20;28.15;;;22.70;99.90;;;;;;4993417;28;20049;-69
2021/09/10 10:29:13;;;;;;;30.00;27.25;;;22.80;99.90;;;;;;4996375;28;20472;-69
2021/09/10 10:31:57;;;;;;;30.75;26.00;;;22.90;99.90;;;;;;4998715;28;20073;-69
2021/09/10 10:34:23;;;;;;;47.25;27.40;;;22.90;99.90;;;;;;4999772;28;20050;-70
2021/09/10 10:36:49;;;;;;;28.27;25.25;;;23.00;99.90;;;;;;5002236;28;20495;-69
2021/09/10 10:39:26;;;;;;;29.50;26.73;;;23.00;99.90;;;;;;4995903;28;20069;-69
2021/09/10 10:42:07;;;;;;;37.90;28.25;;;22.90;99.90;;;;;;4997111;28;20065;-69
2021/09/10 10:44:33;;;;;;;29.15;26.50;;;22.90;99.90;;;;;;4994285;28;20066;-70
2021/09/10 10:47:16;;;;;;;30.52;27.38;;;22.90;99.90;;;;;;5001143;28;20097;-69
2021/09/10 10:49:49;;;;;;;32.00;29.13;;;22.80;99.90;;;;;;5000156;28;20141;-69
2021/09/10 10:52:32;;;;;;;30.77;27.60;;;22.80;99.90;;;;;;4996885;28;20096;-68
2021/09/10 10:55:22;;;;;;;31.23;28.35;;;22.80;99.90;;;;;;5000341;28;20588;-69
2021/09/10 10:57:50;;;;;;;32.97;29.98;;;22.80;99.90;;;;;;4997726;28;20057;-69
2021/09/10 11:00:28;;;;;;;32.22;29.33;;;22.90;99.90;;;;;;5000021;28;20065;-69
2021/09/10 11:03:16;;;;;;;31.95;28.77;;;23.00;99.90;;;;;;4999175;28;20046;-69
2021/09/10 11:05:52;;;;;;;28.50;26.02;;;23.10;99.90;;;;;;4997133;28;20537;-69
2021/09/10 11:08:19;;;;;;;31.85;26.23;;;23.20;99.90;;;;;;4999172;28;20053;-69
2021/09/10 11:10:50;;;;;;;28.90;26.20;;;23.20;99.90;;;;;;5001848;28;20144;-69
2021/09/10 11:13:17;;;;;;;29.48;26.88;;;23.40;99.90;;;;;;5000566;28;20057;-69
2021/09/10 11:15:43;;;;;;;46.00;28.58;;;23.40;99.90;;;;;;5005390;28;20053;-69
2021/09/10 11:18:13;;;;;;;31.65;28.38;;;23.50;99.90;;;;;;5000788;28;20046;-69
2021/09/10 11:20:39;;;;;;;29.63;26.92;;;23.50;99.90;;;;;;5000830;28;20058;-69
2021/09/10 11:23:08;;;;;;;26.95;24.55;;;23.50;99.90;;;;;;5003475;28;20053;-69
2021/09/10 11:25:41;;;;;;;37.75;27.00;;;23.60;99.90;;;;;;4988797;28;20053;-69
2021/09/10 11:28:08;;;;;;;28.35;25.75;;;23.70;99.90;;;;;;5001167;28;20045;-68
2021/09/10 11:30:34;;;;;;;28.55;25.90;;;23.80;99.90;;;;;;5000209;28;20057;-69
2021/09/10 11:33:01;;;;;;;39.15;27.90;;;23.80;99.90;;;;;;4988998;28;20034;-69
2021/09/10 11:35:29;;;;;;;29.02;26.17;;;23.80;99.90;;;;;;5001301;28;20710;-69
2021/09/10 11:38:04;;;;;;;26.77;24.35;;;23.90;99.90;;;;;;5001870;28;20069;-70
2021/09/10 11:40:49;;;;;;;27.92;25.00;;;24.00;99.90;;;;;;5003662;28;20818;-69
2021/09/10 11:43:16;;;;;;;28.70;25.90;;;24.10;99.90;;;;;;5002473;28;20048;-69
2021/09/10 11:46:12;;;;;;;27.83;24.95;;;24.30;99.90;;;;;;4998157;28;20053;-69
2021/09/10 11:48:42;;;;;;;26.98;24.38;;;24.40;99.90;;;;;;4993405;28;20470;-69
2021/09/10 11:51:11;;;;;;;23.88;21.80;;;24.50;99.90;;;;;;5003346;28;20125;-69
2021/09/10 11:53:47;;;;;;;26.88;24.30;;;24.40;99.90;;;;;;5001997;28;20052;-69
2021/09/10 11:56:33;;;;;;;105.50;42.17;;;24.40;99.90;;;;;;5002527;28;20053;-69
2021/09/10 11:58:59;;;;;;;75.60;38.05;;;24.40;99.90;;;;;;5000635;28;20487;-69
2021/09/10 12:01:26;;;;;;;29.50;25.02;;;24.40;99.90;;;;;;5001176;28;20104;-69
2021/09/10 12:03:55;;;;;;;24.73;22.52;;;24.50;99.90;;;;;;4998272;28;20060;-69
2021/09/10 12:06:27;;;;;;;20.15;18.40;;;24.60;99.90;;;;;;5003642;28;20368;-69
2021/09/10 12:09:18;;;;;;;15.40;14.10;;;24.70;99.90;;;;;;5003680;28;20133;-69
2021/09/10 12:12:19;;;;;;;18.65;16.92;;;25.00;99.90;;;;;;5005184;28;20034;-69
2021/09/10 12:14:54;;;;;;;18.83;16.90;;;25.10;99.90;;;;;;5003332;28;20045;-69
2021/09/10 12:17:26;;;;;;;19.42;17.58;;;25.00;99.90;;;;;;5001710;28;20523;-69
2021/09/10 12:20:17;;;;;;;22.15;15.15;;;25.00;99.90;;;;;;5000259;28;20417;-69
2021/09/10 12:22:47;;;;;;;19.88;18.08;;;25.00;99.90;;;;;;5005145;28;20080;-69
2021/09/10 12:25:31;;;;;;;20.05;18.17;;;24.80;99.90;;;;;;5000624;28;20050;-69
2021/09/10 12:28:03;;;;;;;21.10;19.08;;;24.80;99.90;;;;;;5002402;28;20386;-69
2021/09/10 12:30:32;;;;;;;21.02;18.88;;;24.60;99.90;;;;;;5004037;28;20088;-69